createdAt,value
2022-10-11T00:01:52.776Z,10.10
2022-10-11T00:04:19.640Z,10.11
2022-10-11T00:06:47.291Z,9.97
2022-10-11T00:09:16.025Z,9.96
2022-10-11T00:11:43.034Z,9.89
2022-10-11T00:14:10.183Z,9.91
2022-10-11T00:16:40.826Z,9.93
2022-10-11T00:19:07.803Z,9.84
2022-10-11T00:21:34.538Z,9.77
2022-10-11T00:24:01.289Z,9.83
2022-10-11T00:26:28.219Z,9.77
2022-10-11T00:28:55.215Z,9.75
2022-10-11T00:31:22.382Z,9.69
2022-10-11T00:33:49.228Z,9.76
2022-10-11T00:36:17.558Z,9.77
2022-10-11T00:38:45.072Z,9.75
2022-10-11T00:41:12.242Z,9.68
2022-10-11T00:43:39.898Z,9.68
2022-10-11T00:46:18.912Z,9.68
2022-10-11T00:49:15.666Z,9.66
2022-10-11T00:52:00.354Z,9.74
2022-10-11T00:54:30.231Z,9.66
2022-10-11T00:57:03.052Z,9.66
2022-10-11T00:59:35.062Z,9.64
2022-10-11T01:02:02.388Z,9.53
2022-10-11T01:04:29.046Z,9.49
2022-10-11T01:06:56.399Z,9.50
2022-10-11T01:09:23.110Z,9.52
2022-10-11T01:11:52.218Z,9.45
2022-10-11T01:14:43.614Z,9.45
2022-10-11T01:17:24.911Z,9.45
2022-10-11T01:20:00.802Z,9.38
2022-10-11T01:22:39.791Z,9.39
2022-10-11T01:25:21.492Z,9.36
2022-10-11T01:28:10.020Z,9.27
2022-10-11T01:30:38.191Z,9.29
2022-10-11T01:33:28.596Z,9.33
2022-10-11T01:36:14.347Z,9.17
2022-10-11T01:38:50.216Z,9.14
2022-10-11T01:41:23.094Z,9.03
2022-10-11T01:43:53.523Z,9.05
2022-10-11T01:46:21.232Z,8.96
2022-10-11T01:48:56.900Z,8.94
2022-10-11T01:51:29.826Z,8.91
2022-10-11T01:54:12.080Z,8.86
2022-10-11T01:57:08.123Z,8.90
2022-10-11T01:59:56.228Z,8.89
2022-10-11T02:02:45.471Z,8.98
2022-10-11T02:05:23.938Z,9.01
2022-10-11T02:08:08.898Z,9.01
2022-10-11T02:10:47.240Z,9.01
2022-10-11T02:13:23.260Z,8.97
2022-10-11T02:15:52.644Z,8.97
2022-10-11T02:18:26.539Z,9.00
2022-10-11T02:20:54.318Z,9.01
2022-10-11T02:23:26.893Z,9.05
2022-10-11T02:25:56.114Z,9.08
2022-10-11T02:28:30.387Z,9.10
2022-10-11T02:30:59.329Z,9.07
2022-10-11T02:34:15.664Z,9.03
2022-10-11T02:36:46.160Z,9.04
2022-10-11T02:39:20.490Z,9.09
2022-10-11T02:41:50.102Z,9.07
2022-10-11T02:44:24.266Z,9.01
2022-10-11T02:46:51.944Z,8.91
2022-10-11T02:49:20.857Z,8.98
2022-10-11T02:51:48.082Z,8.98
2022-10-11T02:54:14.807Z,8.94
2022-10-11T02:56:41.738Z,8.96
2022-10-11T02:59:08.368Z,8.90
2022-10-11T03:01:35.068Z,8.93
2022-10-11T03:04:01.774Z,8.91
2022-10-11T03:06:28.444Z,8.93
2022-10-11T03:08:55.287Z,8.93
2022-10-11T03:11:22.086Z,8.94
2022-10-11T03:13:48.736Z,8.87
2022-10-11T03:16:15.537Z,8.81
2022-10-11T03:18:42.346Z,8.85
2022-10-11T03:21:09.188Z,8.78
2022-10-11T03:23:35.894Z,8.77
2022-10-11T03:26:03.215Z,8.74
2022-10-11T03:28:30.287Z,8.76
2022-10-11T03:30:57.124Z,8.75
2022-10-11T03:33:23.921Z,8.73
2022-10-11T03:35:50.739Z,8.72
2022-10-11T03:38:20.973Z,8.67
2022-10-11T03:40:48.288Z,8.68
2022-10-11T03:43:15.544Z,8.60
2022-10-11T03:45:42.410Z,8.60
2022-10-11T03:48:10.091Z,8.55
2022-10-11T03:50:37.559Z,8.52
2022-10-11T03:53:06.033Z,8.52
2022-10-11T03:55:33.149Z,8.55
2022-10-11T03:57:59.809Z,8.46
2022-10-11T04:00:27.385Z,8.53
2022-10-11T04:02:54.109Z,8.49
2022-10-11T04:05:20.847Z,8.56
2022-10-11T04:07:47.714Z,8.58
2022-10-11T04:10:14.479Z,8.47
2022-10-11T04:12:41.110Z,8.51
2022-10-11T04:15:08.104Z,8.57
2022-10-11T04:17:34.899Z,8.48
2022-10-11T04:20:01.586Z,8.55
2022-10-11T04:22:28.335Z,8.46
2022-10-11T04:24:55.175Z,8.47
2022-10-11T04:27:22.049Z,8.38
2022-10-11T04:29:48.863Z,8.44
2022-10-11T04:32:15.539Z,8.41
2022-10-11T04:34:42.916Z,8.35
2022-10-11T04:37:09.710Z,8.24
2022-10-11T04:39:37.088Z,8.21
2022-10-11T04:42:04.317Z,8.22
2022-10-11T04:44:31.762Z,8.27
2022-10-11T04:46:58.461Z,8.26
2022-10-11T04:49:25.203Z,8.26
2022-10-11T04:51:51.926Z,8.20
2022-10-11T04:54:18.738Z,8.16
2022-10-11T04:56:45.391Z,8.17
2022-10-11T04:59:12.102Z,8.17
2022-10-11T05:01:39.102Z,8.16
2022-10-11T05:04:06.011Z,8.15
2022-10-11T05:06:32.764Z,8.08
2022-10-11T05:09:00.623Z,8.07
2022-10-11T05:11:27.460Z,8.09
2022-10-11T05:13:54.153Z,8.05
2022-10-11T05:16:20.842Z,8.07
2022-10-11T05:18:47.574Z,8.11
2022-10-11T05:21:15.972Z,8.07
2022-10-11T05:23:43.183Z,8.11
2022-10-11T05:26:10.213Z,8.06
2022-10-11T05:28:37.066Z,8.07
2022-10-11T05:31:04.285Z,8.09
2022-10-11T05:33:31.343Z,8.08
2022-10-11T05:35:58.034Z,8.09
2022-10-11T05:38:24.835Z,8.06
2022-10-11T05:40:52.079Z,8.13
2022-10-11T05:43:19.252Z,8.12
2022-10-11T05:45:46.564Z,8.06
2022-10-11T05:48:13.322Z,8.11
2022-10-11T05:50:40.230Z,8.18
2022-10-11T05:53:07.522Z,8.18
2022-10-11T05:55:44.020Z,8.15
2022-10-11T05:58:13.932Z,8.20
2022-10-11T06:00:41.170Z,8.18
2022-10-11T06:03:08.954Z,8.20
2022-10-11T06:05:36.084Z,8.28
2022-10-11T06:08:06.015Z,8.24
2022-10-11T06:10:33.204Z,8.24
2022-10-11T06:12:59.957Z,8.27
2022-10-11T06:15:26.841Z,8.32
2022-10-11T06:17:53.812Z,8.30
2022-10-11T06:20:20.514Z,8.41
2022-10-11T06:22:47.359Z,8.55
2022-10-11T06:25:14.062Z,8.47
2022-10-11T06:27:40.830Z,8.47
2022-10-11T06:30:08.026Z,8.52
2022-10-11T06:32:35.416Z,8.53
2022-10-11T06:35:03.443Z,8.64
2022-10-11T06:37:30.354Z,8.70
2022-10-11T06:39:57.116Z,8.79
2022-10-11T06:42:23.850Z,8.92
2022-10-11T06:44:50.644Z,9.04
2022-10-11T06:47:17.298Z,8.95
2022-10-11T06:49:44.077Z,8.98
2022-10-11T06:52:10.850Z,8.97
2022-10-11T06:54:41.196Z,9.11
2022-10-11T06:57:10.746Z,9.15
2022-10-11T06:59:37.368Z,9.16
2022-10-11T07:02:04.098Z,9.16
2022-10-11T07:04:30.782Z,9.32
2022-10-11T07:06:57.570Z,9.26
2022-10-11T07:09:24.221Z,9.33
2022-10-11T07:11:51.150Z,9.48
2022-10-11T07:14:17.824Z,9.46
2022-10-11T07:16:45.042Z,9.42
2022-10-11T07:19:11.818Z,9.50
2022-10-11T07:21:38.654Z,9.55
2022-10-11T07:24:05.740Z,9.60
2022-10-11T07:26:38.238Z,9.62
2022-10-11T07:29:06.719Z,9.72
2022-10-11T07:31:33.731Z,9.85
2022-10-11T07:34:00.390Z,9.97
2022-10-11T07:36:27.440Z,10.04
2022-10-11T07:38:54.296Z,10.04
2022-10-11T07:41:21.508Z,10.10
2022-10-11T07:43:49.937Z,10.15
2022-10-11T07:46:18.329Z,10.30
2022-10-11T07:48:45.082Z,10.39
2022-10-11T07:51:14.585Z,10.50
2022-10-11T07:53:45.358Z,10.60
2022-10-11T07:56:14.425Z,10.75
2022-10-11T07:58:42.261Z,10.86
2022-10-11T08:01:10.800Z,10.88
2022-10-11T08:03:38.522Z,10.96
2022-10-11T08:06:08.107Z,11.12
2022-10-11T08:08:35.998Z,11.32
2022-10-11T08:11:02.707Z,11.52
2022-10-11T08:13:29.459Z,11.54
2022-10-11T08:15:56.828Z,11.78
2022-10-11T08:18:23.892Z,11.86
2022-10-11T08:20:50.835Z,11.94
2022-10-11T08:23:19.086Z,12.20
2022-10-11T08:25:47.889Z,12.20
2022-10-11T08:28:17.661Z,12.29
2022-10-11T08:30:52.354Z,12.48
2022-10-11T08:33:22.538Z,12.58
2022-10-11T08:35:51.358Z,12.69
2022-10-11T08:38:18.813Z,12.82
2022-10-11T08:40:52.100Z,13.21
2022-10-11T08:43:47.567Z,13.16
2022-10-11T08:46:15.899Z,13.63
2022-10-11T08:48:46.117Z,14.13
2022-10-11T08:51:43.737Z,14.44
2022-10-11T08:54:31.729Z,14.56
2022-10-11T08:56:58.546Z,14.83
2022-10-11T08:59:35.998Z,15.30
2022-10-11T09:02:21.570Z,15.56
2022-10-11T09:04:51.387Z,16.19
2022-10-11T09:07:45.407Z,16.33
2022-10-11T09:10:35.693Z,16.74
2022-10-11T09:13:18.792Z,16.84
2022-10-11T09:15:59.126Z,17.29
2022-10-11T09:18:47.499Z,17.78
2022-10-11T09:21:20.360Z,17.46
2022-10-11T09:23:47.014Z,17.31
2022-10-11T09:26:16.831Z,17.82
2022-10-11T09:28:46.406Z,18.10
2022-10-11T09:31:13.405Z,18.29
2022-10-11T09:33:49.940Z,18.36
2022-10-11T09:36:22.808Z,18.25
2022-10-11T09:39:06.826Z,18.35
2022-10-11T09:41:48.709Z,18.37
2022-10-11T09:44:24.044Z,18.24
2022-10-11T09:46:52.336Z,18.48
2022-10-11T09:49:23.017Z,17.92
2022-10-11T09:52:02.065Z,18.05
2022-10-11T09:54:47.181Z,18.06
2022-10-11T09:57:19.094Z,17.25
2022-10-11T10:00:15.964Z,17.01
2022-10-11T10:02:54.279Z,17.17
2022-10-11T10:05:37.517Z,16.69
2022-10-11T10:08:10.385Z,16.21
2022-10-11T10:10:43.065Z,16.36
2022-10-11T10:13:21.767Z,15.92
2022-10-11T10:15:55.031Z,15.83
2022-10-11T10:18:33.882Z,15.88
2022-10-11T10:21:04.204Z,16.10
2022-10-11T10:23:36.640Z,15.74
2022-10-11T10:26:19.872Z,15.66
2022-10-11T10:29:01.054Z,15.51
2022-10-11T10:31:49.589Z,15.97
2022-10-11T10:34:35.510Z,15.87
2022-10-11T10:37:25.480Z,16.34
2022-10-11T10:40:01.694Z,16.47
2022-10-11T10:42:28.910Z,16.59
2022-10-11T10:44:58.537Z,17.09
2022-10-11T10:47:54.497Z,17.08
2022-10-11T10:50:41.358Z,17.63
2022-10-11T10:53:26.173Z,17.54
2022-10-11T10:56:05.894Z,18.67
2022-10-11T10:58:48.963Z,18.80
2022-10-11T11:01:24.006Z,19.40
2022-10-11T11:04:09.870Z,19.24
2022-10-11T11:07:21.656Z,19.63
2022-10-11T11:10:11.309Z,19.77
2022-10-11T11:13:00.202Z,19.63
2022-10-11T11:15:51.228Z,20.57
2022-10-11T11:18:18.067Z,20.37
2022-10-11T11:20:53.943Z,20.55
2022-10-11T11:23:30.730Z,20.70
2022-10-11T11:26:08.911Z,20.89
2022-10-11T11:28:50.404Z,20.92
2022-10-11T11:31:32.224Z,20.86
2022-10-11T11:34:26.826Z,21.08
2022-10-11T11:37:00.477Z,20.02
2022-10-11T11:39:45.143Z,19.45
2022-10-11T11:42:31.081Z,19.90
2022-10-11T11:45:06.097Z,19.02
2022-10-11T11:47:37.740Z,19.20
2022-10-11T11:50:22.518Z,18.62
2022-10-11T11:52:57.445Z,18.09
2022-10-11T11:55:28.021Z,17.80
2022-10-11T11:58:16.434Z,17.70
2022-10-11T12:00:55.183Z,17.81
2022-10-11T12:03:27.513Z,17.65
2022-10-11T12:06:17.852Z,17.44
2022-10-11T12:08:48.352Z,17.30
2022-10-11T12:11:31.765Z,17.37
2022-10-11T12:14:17.098Z,16.49
2022-10-11T12:17:07.596Z,16.64
2022-10-11T12:19:36.238Z,16.40
2022-10-11T12:22:27.800Z,16.37
2022-10-11T12:25:09.126Z,16.65
2022-10-11T12:27:47.912Z,16.40
2022-10-11T12:30:42.839Z,16.15
2022-10-11T12:33:32.929Z,15.88
2022-10-11T12:36:22.014Z,16.04
2022-10-11T12:39:21.081Z,16.20
2022-10-11T12:41:47.995Z,16.18
2022-10-11T12:44:30.128Z,16.29
2022-10-11T12:46:57.903Z,15.92
2022-10-11T12:49:27.561Z,16.25
2022-10-11T12:52:21.059Z,16.12
2022-10-11T12:55:12.134Z,16.14
2022-10-11T12:58:06.033Z,16.40
2022-10-11T13:00:51.105Z,16.15
2022-10-11T13:03:58.907Z,15.90
2022-10-11T13:06:33.277Z,15.87
2022-10-11T13:09:05.189Z,15.82
2022-10-11T13:11:48.838Z,15.74
2022-10-11T13:14:27.240Z,16.03
2022-10-11T13:17:03.573Z,15.89
2022-10-11T13:19:35.809Z,15.91
2022-10-11T13:22:19.482Z,15.87
2022-10-11T13:24:46.635Z,15.89
2022-10-11T13:27:23.131Z,15.74
2022-10-11T13:29:53.066Z,15.57
2022-10-11T13:32:30.185Z,15.55
2022-10-11T13:35:04.693Z,15.47
2022-10-11T13:37:41.680Z,15.23
2022-10-11T13:40:14.959Z,15.06
2022-10-11T13:42:42.589Z,15.00
2022-10-11T13:45:14.227Z,14.88
2022-10-11T13:47:41.690Z,14.80
2022-10-11T13:50:17.613Z,14.54
2022-10-11T13:52:55.586Z,14.53
2022-10-11T13:55:28.842Z,14.33
2022-10-11T13:57:57.986Z,14.08
2022-10-11T14:00:39.146Z,13.97
2022-10-11T14:03:15.168Z,13.83
2022-10-11T14:06:00.076Z,13.73
2022-10-11T14:08:42.167Z,13.71
2022-10-11T14:11:11.897Z,13.65
2022-10-11T14:13:47.785Z,13.64
2022-10-11T14:16:34.742Z,13.53
2022-10-11T14:19:01.298Z,13.50
2022-10-11T14:21:28.046Z,13.54
2022-10-11T14:24:14.503Z,13.52
2022-10-11T14:26:52.937Z,13.77
2022-10-11T14:29:33.413Z,13.90
2022-10-11T14:32:06.299Z,14.27
2022-10-11T14:34:34.345Z,14.45
2022-10-11T14:37:00.960Z,14.27
2022-10-11T14:39:30.524Z,14.22
2022-10-11T14:41:57.428Z,14.14
2022-10-11T14:44:24.228Z,14.10
2022-10-11T14:46:54.608Z,13.95
2022-10-11T14:49:32.233Z,13.97
2022-10-11T14:51:59.476Z,13.98
2022-10-11T14:54:28.241Z,13.88
2022-10-11T14:56:57.924Z,13.77
2022-10-11T14:59:27.202Z,13.75
2022-10-11T15:01:54.330Z,13.76
2022-10-11T15:04:23.058Z,13.75
2022-10-11T15:06:50.798Z,13.82
2022-10-11T15:09:20.689Z,13.81
2022-10-11T15:11:48.938Z,13.70
2022-10-11T15:14:15.769Z,13.56
2022-10-11T15:16:42.425Z,13.53
2022-10-11T15:19:27.283Z,13.49
2022-10-11T15:21:54.337Z,13.48
2022-10-11T15:24:21.193Z,13.60
2022-10-11T15:26:49.125Z,13.71
2022-10-11T15:29:17.780Z,13.62
2022-10-11T15:31:45.813Z,13.47
2022-10-11T15:34:12.633Z,13.38
2022-10-11T15:36:39.323Z,13.43
2022-10-11T15:39:24.158Z,13.48
2022-10-11T15:41:51.008Z,13.35
2022-10-11T15:44:17.632Z,13.37
2022-10-11T15:46:44.490Z,13.26
2022-10-11T15:49:13.398Z,13.31
2022-10-11T15:51:40.699Z,13.36
2022-10-11T15:54:07.504Z,13.24
2022-10-11T15:56:34.367Z,13.20
2022-10-11T15:59:01.972Z,13.21
2022-10-11T16:01:28.788Z,13.18
2022-10-11T16:03:55.476Z,13.12
2022-10-11T16:06:22.080Z,13.10
2022-10-11T16:08:48.840Z,13.01
2022-10-11T16:11:15.630Z,13.14
2022-10-11T16:13:42.376Z,12.99
2022-10-11T16:16:10.315Z,12.95
2022-10-11T16:18:38.306Z,12.85
2022-10-11T16:21:08.932Z,12.86
2022-10-11T16:23:36.219Z,12.84
2022-10-11T16:26:05.924Z,12.75
2022-10-11T16:28:33.296Z,12.67
2022-10-11T16:31:00.389Z,12.59
2022-10-11T16:33:27.193Z,12.40
2022-10-11T16:35:53.974Z,12.50
2022-10-11T16:38:21.681Z,12.40
2022-10-11T16:40:48.653Z,12.14
2022-10-11T16:43:15.300Z,12.11
2022-10-11T16:45:42.019Z,12.13
2022-10-11T16:48:08.709Z,11.88
2022-10-11T16:50:39.347Z,11.85
2022-10-11T16:53:06.643Z,11.74
2022-10-11T16:55:33.639Z,11.64
2022-10-11T16:58:00.297Z,11.56
2022-10-11T17:00:27.161Z,11.49
2022-10-11T17:02:53.975Z,11.37
2022-10-11T17:05:20.688Z,11.29
2022-10-11T17:07:47.377Z,11.22
2022-10-11T17:10:14.051Z,11.12
2022-10-11T17:12:40.850Z,11.03
2022-10-11T17:15:10.658Z,10.96
2022-10-11T17:17:37.356Z,10.79
2022-10-11T17:20:04.419Z,10.80
2022-10-11T17:22:31.153Z,10.73
2022-10-11T17:24:57.935Z,10.67
2022-10-11T17:27:24.713Z,10.67
2022-10-11T17:29:51.545Z,10.67
2022-10-11T17:32:18.575Z,10.53
2022-10-11T17:34:45.378Z,10.44
2022-10-11T17:37:12.588Z,10.36
2022-10-11T17:39:39.395Z,10.30
2022-10-11T17:42:07.508Z,10.26
2022-10-11T17:44:35.757Z,10.25
2022-10-11T17:47:02.992Z,10.24
2022-10-11T17:49:30.293Z,10.18
2022-10-11T17:51:57.234Z,10.11
2022-10-11T17:54:25.361Z,10.11
2022-10-11T17:56:52.245Z,10.01
2022-10-11T17:59:21.504Z,9.93
2022-10-11T18:01:50.142Z,9.84
2022-10-11T18:04:19.726Z,9.83
2022-10-11T18:06:47.934Z,9.78
2022-10-11T18:09:16.446Z,9.72
2022-10-11T18:11:43.557Z,9.71
2022-10-11T18:14:10.566Z,9.67
2022-10-11T18:16:38.188Z,9.68
2022-10-11T18:19:07.604Z,9.66
2022-10-11T18:21:35.317Z,9.66
2022-10-11T18:24:05.920Z,9.70
2022-10-11T18:26:33.062Z,9.68
2022-10-11T18:29:00.197Z,9.78
2022-10-11T18:31:29.607Z,9.82
2022-10-11T18:33:56.555Z,9.77
2022-10-11T18:36:26.874Z,9.79
2022-10-11T18:38:56.179Z,9.81
2022-10-11T18:41:25.857Z,9.80
2022-10-11T18:43:55.290Z,9.71
2022-10-11T18:46:23.246Z,9.76
2022-10-11T18:48:53.465Z,9.77
2022-10-11T18:51:31.730Z,9.77
2022-10-11T18:53:59.389Z,9.72
2022-10-11T18:56:28.103Z,9.77
2022-10-11T18:58:56.977Z,9.77
2022-10-11T19:01:32.779Z,9.75
2022-10-11T19:04:01.181Z,9.78
2022-10-11T19:06:36.544Z,9.77
2022-10-11T19:09:17.605Z,9.82
2022-10-11T19:11:44.454Z,9.91
2022-10-11T19:14:14.869Z,9.98
2022-10-11T19:16:49.618Z,9.96
2022-10-11T19:19:17.015Z,10.00
2022-10-11T19:21:43.787Z,10.11
2022-10-11T19:24:10.863Z,10.19
2022-10-11T19:26:40.078Z,10.25
2022-10-11T19:29:15.830Z,10.35
2022-10-11T19:31:45.967Z,10.50
2022-10-11T19:34:13.039Z,10.63
2022-10-11T19:36:42.317Z,10.69
2022-10-11T19:39:14.743Z,10.69
2022-10-11T19:41:42.074Z,10.72
2022-10-11T19:44:09.487Z,10.73
2022-10-11T19:46:52.912Z,10.68
2022-10-11T19:49:24.078Z,10.93
2022-10-11T19:51:53.128Z,11.02
2022-10-11T19:54:19.900Z,11.02
2022-10-11T19:56:47.433Z,11.00
2022-10-11T19:59:14.716Z,11.00
2022-10-11T20:01:42.117Z,11.10
2022-10-11T20:04:22.955Z,11.20
2022-10-11T20:06:58.588Z,11.28
2022-10-11T20:09:30.009Z,11.27
2022-10-11T20:11:57.839Z,11.32
2022-10-11T20:14:25.074Z,11.22
2022-10-11T20:16:52.221Z,11.19
2022-10-11T20:19:19.412Z,11.25
2022-10-11T20:21:46.309Z,11.32
2022-10-11T20:24:13.026Z,11.36
2022-10-11T20:26:39.892Z,11.36
2022-10-11T20:29:07.190Z,11.33
2022-10-11T20:31:38.161Z,11.41
2022-10-11T20:34:07.218Z,11.41
2022-10-11T20:36:36.104Z,11.39
2022-10-11T20:39:04.747Z,11.40
2022-10-11T20:41:34.240Z,11.33
2022-10-11T20:44:02.010Z,11.43
2022-10-11T20:46:31.491Z,11.42
2022-10-11T20:49:05.697Z,11.42
2022-10-11T20:51:34.353Z,11.39
2022-10-11T20:54:02.091Z,11.44
2022-10-11T20:56:30.052Z,11.49
2022-10-11T20:58:57.696Z,11.48
2022-10-11T21:01:39.681Z,11.51
2022-10-11T21:04:07.915Z,11.43
2022-10-11T21:06:34.839Z,11.53
2022-10-11T21:09:02.474Z,11.47
2022-10-11T21:11:31.954Z,11.49
2022-10-11T21:14:00.914Z,11.47
2022-10-11T21:16:28.713Z,11.53
2022-10-11T21:18:57.752Z,11.53
2022-10-11T21:21:25.298Z,11.51
2022-10-11T21:24:10.307Z,11.46
2022-10-11T21:26:37.036Z,11.55
2022-10-11T21:29:04.254Z,11.51
2022-10-11T21:31:34.129Z,11.53
2022-10-11T21:34:02.638Z,11.46
2022-10-11T21:36:29.527Z,11.45
2022-10-11T21:38:56.338Z,11.52
2022-10-11T21:41:25.877Z,11.46
2022-10-11T21:43:52.692Z,11.47
2022-10-11T21:46:54.032Z,11.51
2022-10-11T21:49:16.838Z,11.44
2022-10-11T21:51:43.669Z,11.33
2022-10-11T21:54:10.543Z,11.27
2022-10-11T21:56:37.248Z,11.22
2022-10-11T21:59:06.573Z,11.30
2022-10-11T22:01:36.880Z,11.24
2022-10-11T22:04:07.559Z,11.18
2022-10-11T22:06:34.864Z,11.20
2022-10-11T22:09:01.508Z,11.16
2022-10-11T22:11:28.295Z,11.13
2022-10-11T22:13:54.966Z,11.17
2022-10-11T22:16:21.945Z,11.11
2022-10-11T22:18:49.345Z,11.02
2022-10-11T22:21:19.366Z,10.85
2022-10-11T22:23:48.501Z,10.70
2022-10-11T22:26:18.038Z,10.57
2022-10-11T22:28:49.001Z,10.51
2022-10-11T22:31:17.650Z,10.39
2022-10-11T22:36:13.676Z,10.55
2022-10-11T22:38:42.613Z,10.20
2022-10-11T22:41:09.845Z,10.04
2022-10-11T22:43:36.630Z,9.96
2022-10-11T22:46:04.476Z,9.94
2022-10-11T22:48:31.276Z,9.79
2022-10-11T22:50:58.029Z,9.72
2022-10-11T22:53:24.730Z,9.68
2022-10-11T22:55:51.491Z,9.64
2022-10-11T22:58:18.137Z,9.61
2022-10-11T23:00:44.970Z,9.65
2022-10-11T23:03:16.268Z,9.66
2022-10-11T23:05:43.222Z,9.72
2022-10-11T23:08:10.275Z,9.79
2022-10-11T23:10:40.314Z,9.84
2022-10-11T23:13:07.131Z,9.83
2022-10-11T23:15:33.873Z,9.84
2022-10-11T23:18:00.512Z,9.86
2022-10-11T23:20:27.145Z,9.92
2022-10-11T23:22:53.833Z,9.94
2022-10-11T23:25:20.577Z,10.00
2022-10-11T23:27:47.242Z,10.03
2022-10-11T23:30:14.199Z,9.98
2022-10-11T23:32:40.886Z,10.08
2022-10-11T23:35:07.989Z,10.11
2022-10-11T23:37:35.334Z,10.20
2022-10-11T23:40:02.634Z,10.44
2022-10-11T23:42:29.530Z,10.39
2022-10-11T23:44:56.124Z,10.38
2022-10-11T23:47:22.848Z,10.38
2022-10-11T23:49:52.871Z,10.37
2022-10-11T23:52:19.526Z,10.29
2022-10-11T23:54:46.223Z,10.26
2022-10-11T23:57:13.038Z,10.24
2022-10-11T23:59:39.936Z,10.25
